Time;durP1;ratioP1;P1;durP2;ratioP2;P2;SDS_P1;SDS_P2;PMS_P1;PMS_P2;Temp;Humidity;BMP_temperature;BMP_pressure;BME280_temperature;BME280_humidity;BME280_pressure;Samples;Min_cycle;Max_cycle;Signal;HPM_P1;HPM_P2
2023/04/20 11:32:21;;;;;;;1.47;1.00;;;11.20;90.30;;;;;;1493899;26;20746;-75
2023/04/20 11:34:58;;;;;;;1.47;1.10;;;11.20;90.50;;;;;;5006227;28;21007;-75
2023/04/20 11:37:25;;;;;;;1.50;1.10;;;11.10;90.60;;;;;;5068089;28;20471;-76
2023/04/20 11:39:59;;;;;;;1.43;1.00;;;11.00;90.70;;;;;;5016334;28;20461;-77
2023/04/20 11:42:26;;;;;;;1.50;1.10;;;11.20;95.10;;;;;;4995539;28;20480;-76
2023/04/20 11:44:53;;;;;;;1.50;1.10;;;11.50;94.80;;;;;;5038603;23;20931;-78
2023/04/20 11:47:21;;;;;;;1.50;1.00;;;11.80;94.00;;;;;;4998561;28;20849;-76
2023/04/20 11:49:48;;;;;;;1.50;1.10;;;12.20;90.70;;;;;;5006641;28;20464;-76
2023/04/20 11:52:15;;;;;;;1.47;1.00;;;12.40;88.50;;;;;;4995876;28;20817;-77
2023/04/20 11:54:42;;;;;;;1.47;1.00;;;12.60;87.70;;;;;;5000105;28;21232;-78
2023/04/20 11:57:09;;;;;;;1.47;0.97;;;12.30;87.20;;;;;;5031897;28;20477;-78
2023/04/20 11:59:36;;;;;;;1.50;0.97;;;12.10;88.80;;;;;;5014997;28;20513;-78
2023/04/20 12:02:03;;;;;;;1.50;1.10;;;11.80;91.10;;;;;;5035079;28;20493;-76
2023/04/20 12:04:33;;;;;;;1.50;1.07;;;11.80;92.40;;;;;;5014787;28;20554;-77
2023/04/20 12:07:01;;;;;;;1.43;0.90;;;11.80;89.10;;;;;;5028761;28;20475;-78
2023/04/20 12:09:29;;;;;;;1.50;1.10;;;12.00;88.20;;;;;;5018940;28;20478;-76
2023/04/20 12:11:56;;;;;;;1.40;1.00;;;12.40;87.90;;;;;;5017535;28;20481;-77
2023/04/20 12:14:23;;;;;;;1.50;1.00;;;12.80;85.60;;;;;;5018886;28;20483;-76
2023/04/20 12:16:49;;;;;;;1.47;0.90;;;13.30;84.20;;;;;;5015780;28;20495;-75
2023/04/20 12:19:16;;;;;;;1.50;1.00;;;13.60;81.50;;;;;;5025643;28;20457;-76
2023/04/20 12:21:46;;;;;;;1.50;0.90;;;13.70;81.20;;;;;;5016075;28;20471;-76
2023/04/20 12:24:12;;;;;;;1.40;0.90;;;13.70;80.70;;;;;;5025765;28;20531;-76
2023/04/20 12:26:39;;;;;;;1.50;1.10;;;13.70;81.50;;;;;;5016801;28;20489;-76
2023/04/20 12:29:07;;;;;;;1.50;1.00;;;13.60;81.60;;;;;;5030738;28;21029;-76
2023/04/20 12:31:34;;;;;;;1.47;0.93;;;13.40;81.50;;;;;;5009012;28;20806;-76
2023/04/20 12:34:01;;;;;;;1.43;0.90;;;13.20;80.20;;;;;;5034553;28;20486;-74
2023/04/20 12:36:28;;;;;;;1.43;1.00;;;13.30;81.80;;;;;;5003510;28;20478;-77
2023/04/20 12:38:56;;;;;;;1.47;1.00;;;13.70;80.30;;;;;;5031037;28;20960;-77
2023/04/20 12:41:23;;;;;;;1.40;0.90;;;13.80;79.40;;;;;;4999162;28;20481;-77
2023/04/20 12:43:50;;;;;;;1.47;0.90;;;14.00;80.00;;;;;;5041126;28;20465;-77
2023/04/20 12:46:17;;;;;;;1.50;0.90;;;14.00;79.50;;;;;;5054274;28;20484;-77
2023/04/20 12:48:45;;;;;;;1.50;0.90;;;14.00;78.00;;;;;;5047980;28;20473;-77
2023/04/20 12:51:12;;;;;;;1.43;1.00;;;14.10;78.70;;;;;;4990423;28;20534;-77
2023/04/20 12:53:39;;;;;;;1.50;0.90;;;14.00;78.60;;;;;;5038797;28;20480;-76
2023/04/20 12:56:07;;;;;;;2.27;1.97;;;13.90;77.20;;;;;;4986595;28;20473;-76
2023/04/20 12:58:34;;;;;;;1.50;1.00;;;13.70;78.10;;;;;;5046748;28;20911;-77
2023/04/20 13:01:01;;;;;;;1.43;0.90;;;13.70;78.20;;;;;;4983923;28;20465;-77
2023/04/20 13:03:28;;;;;;;1.47;1.00;;;13.70;77.70;;;;;;5059101;28;21296;-78
2023/04/20 13:05:55;;;;;;;1.47;0.90;;;13.80;78.40;;;;;;4984115;28;20491;-77
2023/04/20 13:08:21;;;;;;;1.40;1.00;;;14.20;77.30;;;;;;5062443;28;20464;-78
2023/04/20 13:10:48;;;;;;;1.50;0.90;;;14.40;77.20;;;;;;4984967;28;20581;-77
2023/04/20 13:13:16;;;;;;;1.40;0.90;;;14.60;76.70;;;;;;5041618;28;20465;-77
2023/04/20 13:15:43;;;;;;;1.50;0.97;;;14.90;76.30;;;;;;4987908;28;20480;-76
2023/04/20 13:18:10;;;;;;;1.50;1.27;;;15.10;75.00;;;;;;4989326;28;20497;-77
2023/04/20 13:20:37;;;;;;;1.47;0.93;;;15.30;74.30;;;;;;5000857;28;20854;-77
2023/04/20 13:23:04;;;;;;;1.50;0.90;;;15.40;74.60;;;;;;4997374;28;20484;-76
2023/04/20 13:25:32;;;;;;;1.43;0.90;;;15.50;74.40;;;;;;4999093;28;20491;-76
2023/04/20 13:28:01;;;;;;;1.43;0.93;;;15.50;74.00;;;;;;4996326;28;20495;-76
2023/04/20 13:30:29;;;;;;;1.50;1.00;;;15.40;73.40;;;;;;5007522;28;20475;-77
2023/04/20 13:32:56;;;;;;;1.43;0.90;;;15.30;72.50;;;;;;4993093;28;20500;-76
2023/04/20 13:35:24;;;;;;;1.50;0.90;;;14.90;72.80;;;;;;5006913;28;21063;-77
2023/04/20 13:37:51;;;;;;;1.47;0.90;;;14.50;73.60;;;;;;4995480;28;20479;-77
2023/04/20 13:40:18;;;;;;;1.50;1.10;;;14.30;74.10;;;;;;5002208;28;20460;-77
2023/04/20 13:42:44;;;;;;;1.47;0.90;;;14.30;74.10;;;;;;4996704;28;20530;-77
2023/04/20 13:45:12;;;;;;;1.43;1.00;;;14.40;74.60;;;;;;5002982;28;20496;-78
2023/04/20 13:47:40;;;;;;;1.60;1.40;;;14.70;72.90;;;;;;4986902;28;20777;-79
2023/04/20 13:50:08;;;;;;;1.43;0.90;;;14.70;72.10;;;;;;4996372;28;20468;-77
2023/04/20 13:52:35;;;;;;;1.47;0.90;;;14.60;72.70;;;;;;4980922;28;20491;-79
2023/04/20 13:55:02;;;;;;;1.47;0.90;;;14.40;73.40;;;;;;5001205;28;20571;-77
2023/04/20 13:57:30;;;;;;;2.17;1.50;;;14.20;73.90;;;;;;4989322;28;20494;-79
2023/04/20 13:59:57;;;;;;;1.50;1.00;;;13.80;74.70;;;;;;5005395;28;20472;-78
2023/04/20 14:02:24;;;;;;;1.50;1.00;;;13.50;75.20;;;;;;4994834;28;20472;-77
2023/04/20 14:04:52;;;;;;;1.50;1.00;;;13.30;75.20;;;;;;5006377;28;20500;-76
2023/04/20 14:07:19;;;;;;;1.50;1.00;;;13.30;75.80;;;;;;4994170;28;21099;-78
2023/04/20 14:09:46;;;;;;;1.43;1.00;;;13.50;75.70;;;;;;5011275;28;20483;-78
2023/04/20 14:12:14;;;;;;;2.17;1.50;;;13.80;74.70;;;;;;4997313;28;20485;-81
2023/04/20 14:14:41;;;;;;;1.40;0.90;;;14.10;73.00;;;;;;5012980;28;20995;-79
2023/04/20 14:17:10;;;;;;;1.47;0.90;;;14.40;73.90;;;;;;4993291;28;20481;-78
2023/04/20 14:19:37;;;;;;;1.47;0.90;;;14.70;75.50;;;;;;5000771;28;20861;-79
2023/04/20 14:22:05;;;;;;;1.50;1.00;;;14.90;72.90;;;;;;5001120;28;20480;-77
2023/04/20 14:24:31;;;;;;;1.47;0.90;;;14.70;71.60;;;;;;5006080;28;20487;-79
2023/04/20 14:26:59;;;;;;;1.50;1.10;;;14.30;71.30;;;;;;5007371;28;20524;-77
2023/04/20 14:29:25;;;;;;;1.50;0.93;;;14.00;71.60;;;;;;5001923;28;20465;-77
2023/04/20 14:31:52;;;;;;;1.40;1.00;;;13.80;71.40;;;;;;5000468;28;20476;-78
2023/04/20 14:34:19;;;;;;;1.40;1.00;;;14.00;72.40;;;;;;5006642;28;20997;-78
2023/04/20 14:36:46;;;;;;;1.50;0.90;;;14.30;72.40;;;;;;4995753;28;20891;-78
2023/04/20 14:39:14;;;;;;;1.40;0.90;;;14.50;72.30;;;;;;5008726;28;20571;-78
2023/04/20 14:41:41;;;;;;;1.40;0.90;;;14.70;71.60;;;;;;4994444;28;21026;-75
2023/04/20 14:44:08;;;;;;;1.40;0.80;;;14.70;70.30;;;;;;5002196;28;20787;-76
2023/04/20 14:49:06;;;;;;;1.40;0.80;;;14.50;68.80;;;;;;5044950;22;20512;-73
2023/04/20 14:51:33;;;;;;;1.40;0.90;;;14.50;69.00;;;;;;4983964;28;20491;-76
2023/04/20 14:54:00;;;;;;;1.50;1.00;;;14.50;69.70;;;;;;4983735;28;20732;-76
2023/04/20 14:56:28;;;;;;;1.40;0.90;;;14.50;70.30;;;;;;4978578;28;20491;-76
2023/04/20 14:58:56;;;;;;;1.40;1.00;;;14.30;72.30;;;;;;4992662;28;20584;-74
2023/04/20 15:01:23;;;;;;;3.30;3.00;;;14.10;72.80;;;;;;4998486;28;20543;-75
2023/04/20 15:03:50;;;;;;;1.43;0.90;;;14.00;73.50;;;;;;5045994;28;20559;-76
2023/04/20 15:06:20;;;;;;;1.50;1.00;;;13.80;73.60;;;;;;4984878;28;20476;-75
2023/04/20 15:08:47;;;;;;;2.40;2.20;;;13.40;73.70;;;;;;4983081;28;20477;-75
2023/04/20 15:11:14;;;;;;;1.50;1.00;;;13.20;74.20;;;;;;4967670;28;20560;-77
2023/04/20 15:13:42;;;;;;;1.97;1.60;;;13.30;74.20;;;;;;4983459;28;20474;-74
2023/04/20 15:16:09;;;;;;;1.50;1.10;;;13.60;73.80;;;;;;4985503;28;20486;-73
2023/04/20 15:18:36;;;;;;;1.40;0.97;;;14.00;74.90;;;;;;5054673;28;20461;-76
2023/04/20 15:21:03;;;;;;;1.40;0.90;;;14.10;71.70;;;;;;4980208;28;20505;-76
2023/04/20 15:23:30;;;;;;;1.40;1.00;;;14.10;71.90;;;;;;5055245;28;20470;-75
2023/04/20 15:25:57;;;;;;;1.43;0.90;;;14.20;71.10;;;;;;4976775;28;20497;-75
2023/04/20 15:28:24;;;;;;;1.40;0.90;;;14.20;71.40;;;;;;5065144;28;20829;-77
2023/04/20 15:30:52;;;;;;;1.50;1.10;;;14.20;72.70;;;;;;4973862;28;20470;-76
2023/04/20 15:33:19;;;;;;;1.43;1.00;;;14.30;73.40;;;;;;5066649;28;20473;-75
2023/04/20 15:35:45;;;;;;;1.43;1.00;;;14.50;72.80;;;;;;4981446;28;20471;-76
2023/04/20 15:38:12;;;;;;;1.40;0.97;;;14.60;72.30;;;;;;4996952;28;20793;-73
2023/04/20 15:40:40;;;;;;;1.50;0.90;;;14.50;72.10;;;;;;4975506;28;20488;-76
2023/04/20 15:43:07;;;;;;;1.40;1.00;;;14.50;71.70;;;;;;4977893;28;20493;-76
2023/04/20 15:45:34;;;;;;;1.43;0.90;;;14.50;71.00;;;;;;4978649;28;20910;-74
2023/04/20 15:48:03;;;;;;;1.50;1.33;;;14.20;71.20;;;;;;5065775;28;20474;-75
2023/04/20 15:50:31;;;;;;;1.40;0.90;;;14.30;72.70;;;;;;4973820;28;20488;-74
2023/04/20 15:53:01;;;;;;;1.40;1.00;;;14.50;72.20;;;;;;4983921;28;20491;-75
2023/04/20 15:55:33;;;;;;;1.40;1.00;;;14.60;72.10;;;;;;4970785;28;20560;-75
2023/04/20 15:58:00;;;;;;;1.50;0.90;;;14.70;73.00;;;;;;5055153;28;21343;-74
2023/04/20 16:00:27;;;;;;;1.40;0.93;;;14.90;70.80;;;;;;4970653;28;21017;-75
2023/04/20 16:02:55;;;;;;;1.43;1.00;;;14.80;70.90;;;;;;5060917;28;20949;-76
2023/04/20 16:05:25;;;;;;;1.40;0.90;;;14.80;70.30;;;;;;4975381;28;20543;-75
2023/04/20 16:07:53;;;;;;;1.40;0.90;;;14.70;69.50;;;;;;4984256;28;20888;-75
2023/04/20 16:10:22;;;;;;;1.40;0.90;;;14.60;70.50;;;;;;4974581;28;20724;-76
2023/04/20 16:12:51;;;;;;;1.40;0.90;;;14.50;70.80;;;;;;4977766;28;20859;-76
2023/04/20 16:15:19;;;;;;;1.47;0.90;;;14.40;69.90;;;;;;4972229;28;20470;-77
2023/04/20 16:17:47;;;;;;;1.47;1.00;;;14.40;71.30;;;;;;5059557;28;21048;-76
2023/04/20 16:20:14;;;;;;;1.47;0.90;;;14.40;70.90;;;;;;4975698;28;20504;-78
2023/04/20 16:22:42;;;;;;;1.43;1.10;;;14.40;70.20;;;;;;4980708;28;20548;-78
2023/04/20 16:25:11;;;;;;;3.60;2.10;;;14.50;69.50;;;;;;4971441;28;20466;-76
2023/04/20 16:27:38;;;;;;;1.40;1.00;;;14.40;69.70;;;;;;5053596;28;20487;-76
2023/04/20 16:30:07;;;;;;;1.40;1.00;;;14.30;69.40;;;;;;4983053;28;20544;-75
2023/04/20 16:32:36;;;;;;;1.40;1.00;;;14.10;69.40;;;;;;5044859;28;20480;-76
2023/04/20 16:35:02;;;;;;;1.47;1.00;;;14.00;70.80;;;;;;4980653;28;20461;-77
2023/04/20 16:37:32;;;;;;;1.43;1.00;;;14.00;70.60;;;;;;5046956;28;20487;-75
2023/04/20 16:40:01;;;;;;;1.50;1.00;;;14.00;70.30;;;;;;4985400;28;20488;-76
2023/04/20 16:42:28;;;;;;;1.40;0.90;;;13.90;69.90;;;;;;4976695;28;20996;-76
2023/04/20 16:44:55;;;;;;;1.50;1.00;;;14.00;71.20;;;;;;4977262;28;20466;-75
2023/04/20 16:47:23;;;;;;;1.50;1.00;;;13.90;69.30;;;;;;5044152;28;20492;-76
2023/04/20 16:49:50;;;;;;;1.43;0.90;;;13.80;69.40;;;;;;5000460;28;20526;-77
2023/04/20 16:52:17;;;;;;;1.47;1.00;;;13.80;70.10;;;;;;5035064;28;20487;-77
2023/04/20 16:54:44;;;;;;;1.43;1.00;;;13.70;69.40;;;;;;4990719;28;20963;-78
2023/04/20 16:57:12;;;;;;;1.50;1.00;;;13.70;69.90;;;;;;5028180;28;20797;-76
2023/04/20 16:59:39;;;;;;;3.20;3.00;;;13.70;70.10;;;;;;4998581;28;20485;-76
2023/04/20 17:02:07;;;;;;;1.43;0.90;;;13.60;71.10;;;;;;4973453;28;20529;-76
2023/04/20 17:04:34;;;;;;;1.47;1.00;;;13.70;71.70;;;;;;4980193;28;20928;-76
2023/04/20 17:07:01;;;;;;;1.43;0.90;;;13.70;71.40;;;;;;4981466;28;20483;-75
2023/04/20 17:09:28;;;;;;;1.50;1.10;;;13.70;71.30;;;;;;4980869;28;20485;-75
2023/04/20 17:11:58;;;;;;;1.47;1.00;;;13.60;72.40;;;;;;4966143;28;20477;-75
2023/04/20 17:14:26;;;;;;;1.40;1.00;;;13.60;72.50;;;;;;4974914;28;21038;-75
2023/04/20 17:16:55;;;;;;;1.43;1.00;;;13.50;72.70;;;;;;5019212;28;20495;-75
2023/04/20 17:19:22;;;;;;;1.40;0.93;;;13.50;73.00;;;;;;5014526;28;20484;-75
2023/04/20 17:21:49;;;;;;;1.40;1.00;;;13.50;73.30;;;;;;5013809;28;20500;-76
2023/04/20 17:24:16;;;;;;;1.47;1.00;;;13.60;74.00;;;;;;5019013;28;20845;-75
2023/04/20 17:26:45;;;;;;;1.47;1.00;;;13.60;73.60;;;;;;5007743;28;20753;-75
2023/04/20 17:29:12;;;;;;;1.40;1.00;;;13.50;73.10;;;;;;5018859;28;20488;-76
2023/04/20 17:31:40;;;;;;;1.40;1.10;;;13.30;73.50;;;;;;4998788;28;20484;-76
2023/04/20 17:34:07;;;;;;;1.43;1.03;;;13.30;74.00;;;;;;5030931;28;20470;-76
2023/04/20 17:36:34;;;;;;;1.43;1.00;;;13.30;74.20;;;;;;5002520;28;20920;-76
2023/04/20 17:39:01;;;;;;;1.47;1.00;;;13.30;74.60;;;;;;5031874;28;20488;-76
2023/04/20 17:41:28;;;;;;;1.47;1.00;;;13.30;75.10;;;;;;4963984;28;20495;-76
2023/04/20 17:43:55;;;;;;;1.43;1.00;;;13.10;74.80;;;;;;4978130;28;20475;-75
2023/04/20 17:46:22;;;;;;;1.50;1.00;;;13.00;75.30;;;;;;4989147;28;20561;-73
2023/04/20 17:48:51;;;;;;;1.50;1.00;;;12.90;76.30;;;;;;5037392;28;21128;-75
2023/04/20 17:51:18;;;;;;;1.73;1.63;;;12.70;78.30;;;;;;4982471;28;20920;-75
2023/04/20 17:53:44;;;;;;;1.43;1.00;;;12.50;81.10;;;;;;5040335;28;20466;-75
2023/04/20 17:56:11;;;;;;;1.43;1.00;;;12.30;84.10;;;;;;4981510;28;20472;-77
2023/04/20 17:58:38;;;;;;;1.50;1.10;;;12.10;85.20;;;;;;5052714;28;21059;-76
2023/04/20 18:01:05;;;;;;;1.50;1.10;;;11.90;86.50;;;;;;4980937;28;20473;-74
2023/04/20 18:03:32;;;;;;;1.47;1.00;;;11.70;87.20;;;;;;5058496;28;20465;-74
2023/04/20 18:06:02;;;;;;;1.50;1.10;;;11.50;88.40;;;;;;4978924;28;21220;-76
2023/04/20 18:08:29;;;;;;;1.50;1.10;;;11.40;89.70;;;;;;5064488;28;20501;-76
2023/04/20 18:10:56;;;;;;;1.40;1.00;;;11.20;90.70;;;;;;4961129;28;20462;-76
2023/04/20 18:13:23;;;;;;;1.50;1.20;;;11.10;91.30;;;;;;4987374;28;20465;-76
2023/04/20 18:15:50;;;;;;;1.50;1.10;;;10.90;91.90;;;;;;4965007;28;20473;-73
2023/04/20 18:18:20;;;;;;;1.43;1.10;;;10.80;92.50;;;;;;5070142;28;20462;-74
2023/04/20 18:20:47;;;;;;;1.50;1.40;;;10.80;92.70;;;;;;4967544;28;20492;-74
2023/04/20 18:23:16;;;;;;;1.50;1.00;;;10.80;92.90;;;;;;5068870;28;20478;-74
2023/04/20 18:25:43;;;;;;;1.50;1.10;;;10.80;93.30;;;;;;4974489;28;20556;-76
2023/04/20 18:28:10;;;;;;;1.50;1.10;;;10.70;93.60;;;;;;5063724;28;20484;-74
2023/04/20 18:30:37;;;;;;;1.50;1.00;;;10.70;93.60;;;;;;4975741;28;20908;-74
2023/04/20 18:33:05;;;;;;;1.50;1.20;;;10.60;94.30;;;;;;5068067;28;20483;-78
2023/04/20 18:35:32;;;;;;;1.43;1.00;;;10.60;94.20;;;;;;4991686;28;20471;-75
2023/04/20 18:37:59;;;;;;;2.47;2.27;;;10.60;94.60;;;;;;5060485;28;20483;-77
2023/04/20 18:40:27;;;;;;;1.50;1.10;;;10.50;94.70;;;;;;4970776;28;20513;-77
2023/04/20 18:42:54;;;;;;;1.50;1.10;;;10.50;94.80;;;;;;4978332;28;20855;-76
2023/04/20 18:45:22;;;;;;;1.40;1.07;;;10.60;94.40;;;;;;4974330;28;20459;-76
2023/04/20 18:47:49;;;;;;;1.43;1.00;;;10.60;94.30;;;;;;5063983;28;20483;-77
2023/04/20 18:50:16;;;;;;;1.40;1.07;;;10.60;95.50;;;;;;4979979;28;21111;-76
2023/04/20 18:52:43;;;;;;;2.40;2.20;;;10.60;96.20;;;;;;5059351;28;20871;-76
2023/04/20 18:55:10;;;;;;;1.47;1.10;;;10.50;97.00;;;;;;4986215;28;20711;-75
2023/04/20 18:57:40;;;;;;;1.50;1.20;;;10.40;96.80;;;;;;4983799;28;20489;-74
2023/04/20 19:00:08;;;;;;;1.43;1.00;;;10.40;97.20;;;;;;4987982;28;20495;-77
2023/04/20 19:02:35;;;;;;;2.20;2.10;;;10.30;97.30;;;;;;4990824;28;20532;-75
2023/04/20 19:05:02;;;;;;;1.50;1.10;;;10.20;96.90;;;;;;4992474;28;20475;-75
2023/04/20 19:07:29;;;;;;;1.50;1.10;;;10.10;97.50;;;;;;5046599;28;20922;-75
2023/04/20 19:09:56;;;;;;;1.47;1.00;;;10.10;97.50;;;;;;4987078;28;20501;-75
2023/04/20 19:12:22;;;;;;;1.40;1.00;;;10.10;97.20;;;;;;4973090;28;20481;-75
2023/04/20 19:14:51;;;;;;;1.47;1.10;;;10.10;98.00;;;;;;4976617;28;20466;-75
2023/04/20 19:17:17;;;;;;;1.47;1.00;;;10.10;98.10;;;;;;5039973;28;20476;-76
2023/04/20 19:19:44;;;;;;;1.50;1.20;;;10.10;98.00;;;;;;5002058;28;20481;-77
2023/04/20 19:22:11;;;;;;;1.47;1.10;;;10.10;98.10;;;;;;4985806;28;21019;-76
2023/04/20 19:24:38;;;;;;;1.50;1.10;;;10.10;98.20;;;;;;4983830;28;20884;-75
2023/04/20 19:27:05;;;;;;;1.43;1.10;;;10.10;98.10;;;;;;4987343;28;20874;-74
2023/04/20 19:29:34;;;;;;;1.50;1.10;;;10.10;97.60;;;;;;4995660;28;20485;-75
2023/04/20 19:32:02;;;;;;;1.50;1.10;;;10.10;97.80;;;;;;4982130;28;20484;-73
2023/04/20 19:34:29;;;;;;;1.43;1.10;;;10.10;97.80;;;;;;4978901;28;20466;-74
2023/04/20 19:36:55;;;;;;;1.50;1.20;;;10.00;97.60;;;;;;5021575;28;20494;-75
2023/04/20 19:39:22;;;;;;;1.50;1.20;;;10.10;97.60;;;;;;5018410;28;20490;-75
2023/04/20 19:41:49;;;;;;;1.40;1.10;;;10.10;97.80;;;;;;4974102;28;20485;-76
2023/04/20 19:44:16;;;;;;;1.47;1.03;;;10.10;98.00;;;;;;4983266;28;20571;-75
2023/04/20 19:46:43;;;;;;;1.50;1.20;;;10.00;98.20;;;;;;4974434;28;20495;-75
2023/04/20 19:49:11;;;;;;;1.47;1.10;;;10.00;98.20;;;;;;4990833;28;20907;-76
2023/04/20 19:51:38;;;;;;;1.50;1.10;;;10.00;98.20;;;;;;4981400;28;20766;-76
2023/04/20 19:54:05;;;;;;;1.50;1.13;;;10.00;98.20;;;;;;4998286;28;20800;-78
2023/04/20 19:56:32;;;;;;;1.43;1.10;;;10.00;98.20;;;;;;5004153;28;20491;-77
2023/04/20 19:58:59;;;;;;;1.50;1.10;;;10.00;98.20;;;;;;4999635;28;20493;-79
2023/04/20 20:01:26;;;;;;;1.50;1.20;;;9.90;98.20;;;;;;5004056;28;20541;-77
2023/04/20 20:03:53;;;;;;;1.47;1.10;;;9.90;98.20;;;;;;5038710;28;20560;-78
2023/04/20 20:06:23;;;;;;;1.50;1.30;;;9.90;98.20;;;;;;4991040;28;20511;-78
2023/04/20 20:08:50;;;;;;;1.50;1.20;;;9.80;98.20;;;;;;5043342;28;20504;-78
2023/04/20 20:11:17;;;;;;;1.50;1.10;;;9.80;98.20;;;;;;4972988;28;20472;-79
2023/04/20 20:13:44;;;;;;;1.47;1.10;;;9.70;98.20;;;;;;4989943;28;20546;-77
2023/04/20 20:16:10;;;;;;;1.47;1.20;;;9.70;98.20;;;;;;4981397;28;20549;-77
2023/04/20 20:18:37;;;;;;;1.47;1.10;;;9.60;98.20;;;;;;4998680;28;20546;-78
2023/04/20 20:21:04;;;;;;;1.50;1.20;;;9.60;98.20;;;;;;4980934;28;20857;-79
2023/04/20 20:23:32;;;;;;;1.47;1.10;;;9.50;98.20;;;;;;4998479;28;20470;-77
2023/04/20 20:25:59;;;;;;;1.50;1.20;;;9.50;98.20;;;;;;4981303;28;20858;-78
2023/04/20 20:28:26;;;;;;;1.50;1.10;;;9.50;98.20;;;;;;5065445;28;20581;-76
2023/04/20 20:30:52;;;;;;;1.43;1.10;;;9.50;98.20;;;;;;4970342;28;20470;-77
2023/04/20 20:33:19;;;;;;;1.50;1.20;;;9.50;98.20;;;;;;5059136;28;20466;-76
2023/04/20 20:35:46;;;;;;;1.43;1.10;;;9.50;98.20;;;;;;4973320;28;20958;-78
2023/04/20 20:38:13;;;;;;;1.47;1.10;;;9.50;98.20;;;;;;4999036;28;20470;-79
2023/04/20 20:40:42;;;;;;;1.50;1.10;;;9.50;98.20;;;;;;4981859;28;20891;-76
2023/04/20 20:43:09;;;;;;;1.50;1.10;;;9.40;98.20;;;;;;4991234;28;20985;-77
2023/04/20 20:45:36;;;;;;;1.40;1.10;;;9.50;98.20;;;;;;4989933;28;20490;-76
2023/04/20 20:48:03;;;;;;;1.50;1.10;;;9.50;98.20;;;;;;5000168;28;20487;-75
2023/04/20 20:50:30;;;;;;;1.43;1.10;;;9.40;98.20;;;;;;5008908;28;20492;-75
2023/04/20 20:52:56;;;;;;;1.50;1.30;;;9.40;98.20;;;;;;5007197;28;20487;-75
2023/04/20 20:55:23;;;;;;;2.43;2.23;;;9.40;98.20;;;;;;4987411;28;21171;-76
2023/04/20 20:57:51;;;;;;;1.50;1.20;;;9.40;98.20;;;;;;5060465;28;20469;-76
2023/04/20 21:00:19;;;;;;;1.50;1.10;;;9.40;98.20;;;;;;4984960;28;20492;-77
2023/04/20 21:02:45;;;;;;;1.50;1.20;;;9.30;98.20;;;;;;4998741;28;20492;-76
2023/04/20 21:05:12;;;;;;;1.50;1.20;;;9.20;98.20;;;;;;5010753;28;20475;-75
2023/04/20 21:07:39;;;;;;;1.50;1.10;;;9.20;98.20;;;;;;4999597;28;20488;-74
2023/04/20 21:10:07;;;;;;;1.50;1.10;;;9.10;98.20;;;;;;5014262;28;20500;-75
2023/04/20 21:12:33;;;;;;;1.47;1.20;;;9.00;98.20;;;;;;4993223;28;20491;-76
2023/04/20 21:15:02;;;;;;;1.50;1.20;;;9.00;98.20;;;;;;4985574;28;20488;-74
2023/04/20 21:17:28;;;;;;;1.40;1.20;;;8.90;98.20;;;;;;5009306;28;20566;-75
2023/04/20 21:19:55;;;;;;;1.50;1.30;;;8.90;98.20;;;;;;5004688;28;20499;-78
2023/04/20 21:22:22;;;;;;;1.43;1.10;;;8.80;98.20;;;;;;5024786;28;21064;-75
2023/04/20 21:24:49;;;;;;;1.50;1.20;;;8.80;98.20;;;;;;5000567;28;20457;-75
2023/04/20 21:27:16;;;;;;;1.50;1.20;;;8.80;98.20;;;;;;5011196;28;20506;-74
2023/04/20 21:29:42;;;;;;;1.50;1.20;;;8.70;98.20;;;;;;5031455;28;20869;-75
2023/04/20 21:32:10;;;;;;;1.50;1.20;;;8.70;98.20;;;;;;5044690;28;20483;-76
2023/04/20 21:34:37;;;;;;;1.53;1.43;;;8.70;98.20;;;;;;5010125;28;20469;-75
2023/04/20 21:37:04;;;;;;;1.50;1.27;;;8.70;98.20;;;;;;5010409;28;20484;-76
2023/04/20 21:39:31;;;;;;;1.50;1.10;;;8.70;98.20;;;;;;5011401;28;20907;-75
2023/04/20 21:41:58;;;;;;;1.47;1.10;;;8.70;98.20;;;;;;4978634;28;20484;-76
2023/04/20 21:44:26;;;;;;;2.07;1.93;;;8.70;98.20;;;;;;4982558;28;20469;-74
2023/04/20 21:46:52;;;;;;;1.50;1.20;;;8.70;98.20;;;;;;4984631;28;20893;-75
2023/04/20 21:49:21;;;;;;;1.50;1.30;;;8.70;98.20;;;;;;5022971;28;20497;-77
2023/04/20 21:51:47;;;;;;;1.50;1.10;;;8.80;98.20;;;;;;4995522;28;20494;-75
2023/04/20 21:54:14;;;;;;;1.50;1.30;;;8.80;98.20;;;;;;5014109;28;20860;-76
2023/04/20 21:56:41;;;;;;;1.70;1.53;;;8.90;98.20;;;;;;4995905;28;20563;-75
2023/04/20 21:59:08;;;;;;;1.50;1.17;;;8.90;98.20;;;;;;5005614;28;20981;-76
2023/04/20 22:01:34;;;;;;;1.50;1.30;;;8.90;98.20;;;;;;4980394;28;20487;-75
2023/04/20 22:04:02;;;;;;;1.50;1.20;;;8.90;98.20;;;;;;5007990;28;20850;-75
2023/04/20 22:06:31;;;;;;;1.50;1.13;;;8.90;98.20;;;;;;5017201;28;20567;-77
2023/04/20 22:08:58;;;;;;;1.50;1.30;;;8.90;98.20;;;;;;5035211;28;20485;-74
2023/04/20 22:11:25;;;;;;;1.50;1.20;;;8.90;98.20;;;;;;5002431;28;20476;-74
2023/04/20 22:13:52;;;;;;;1.50;1.33;;;8.90;98.20;;;;;;5051307;28;20461;-76
2023/04/20 22:16:19;;;;;;;1.50;1.10;;;8.90;98.20;;;;;;5019526;28;20487;-75
2023/04/20 22:18:46;;;;;;;1.50;1.10;;;8.90;98.20;;;;;;4993112;28;20467;-74
2023/04/20 22:21:13;;;;;;;1.50;1.10;;;8.90;98.20;;;;;;4990542;28;20861;-76
2023/04/20 22:23:46;;;;;;;1.50;1.33;;;8.90;98.20;;;;;;5008786;28;20469;-76
2023/04/20 22:26:13;;;;;;;1.50;1.30;;;8.90;98.20;;;;;;5015351;28;20565;-77
2023/04/20 22:28:40;;;;;;;1.50;1.30;;;8.90;98.20;;;;;;5025320;28;20484;-76
2023/04/20 22:31:07;;;;;;;1.50;1.20;;;8.90;98.20;;;;;;5015870;28;20557;-78
2023/04/20 22:33:34;;;;;;;1.50;1.20;;;8.90;98.20;;;;;;5065145;28;20466;-75
2023/04/20 22:36:01;;;;;;;3.87;3.57;;;8.90;98.20;;;;;;4976000;28;20465;-74
2023/04/20 22:38:28;;;;;;;1.50;1.20;;;8.90;98.20;;;;;;5006129;28;20464;-74
2023/04/20 22:40:56;;;;;;;1.50;1.20;;;8.90;98.20;;;;;;4990448;28;20839;-77
2023/04/20 22:43:23;;;;;;;1.50;1.30;;;8.90;98.20;;;;;;5087237;28;20464;-74
2023/04/20 22:45:50;;;;;;;1.50;1.20;;;8.90;98.20;;;;;;5013388;28;20469;-75
2023/04/20 22:48:16;;;;;;;1.50;1.20;;;8.90;98.20;;;;;;5026468;28;20569;-75
2023/04/20 22:50:43;;;;;;;1.50;1.20;;;8.90;98.20;;;;;;5001975;28;21197;-76
2023/04/20 22:53:12;;;;;;;1.47;1.20;;;8.90;98.20;;;;;;5024692;28;20778;-73
2023/04/20 22:55:39;;;;;;;1.50;1.30;;;8.90;98.20;;;;;;4997610;28;20992;-74
2023/04/20 22:58:07;;;;;;;1.50;1.17;;;8.90;98.20;;;;;;4996189;28;20637;-74
2023/04/20 23:00:34;;;;;;;1.50;1.20;;;8.90;98.20;;;;;;5007710;28;20503;-74
2023/04/20 23:03:01;;;;;;;1.50;1.10;;;8.90;98.20;;;;;;5005500;28;20967;-74
2023/04/20 23:05:28;;;;;;;1.50;1.20;;;8.90;98.20;;;;;;5010438;28;20833;-73
2023/04/20 23:08:00;;;;;;;1.47;1.10;;;8.80;98.20;;;;;;5018782;28;20488;-74
2023/04/20 23:10:28;;;;;;;1.50;1.20;;;8.80;98.20;;;;;;4987673;28;21020;-75
2023/04/20 23:12:55;;;;;;;1.47;1.10;;;8.80;98.20;;;;;;5072090;28;20540;-74
2023/04/20 23:15:23;;;;;;;1.50;1.30;;;8.80;98.20;;;;;;5000000;28;20651;-74
2023/04/20 23:17:50;;;;;;;1.50;1.20;;;8.80;98.20;;;;;;5016174;28;20538;-74
2023/04/20 23:20:16;;;;;;;1.50;1.20;;;8.80;98.20;;;;;;5010405;28;20485;-74
2023/04/20 23:22:45;;;;;;;1.50;1.10;;;8.90;98.20;;;;;;4993291;28;20480;-74
2023/04/20 23:25:14;;;;;;;1.47;1.17;;;8.90;98.20;;;;;;5007473;28;20461;-74
2023/04/20 23:27:41;;;;;;;1.50;1.20;;;8.80;98.20;;;;;;5066746;28;20483;-74
2023/04/20 23:30:09;;;;;;;1.50;1.20;;;8.90;98.20;;;;;;5004406;28;20485;-74
2023/04/20 23:32:37;;;;;;;1.50;1.20;;;8.90;98.20;;;;;;4991180;28;20581;-74
2023/04/20 23:35:04;;;;;;;1.50;1.30;;;8.90;98.20;;;;;;4999939;28;20492;-74
2023/04/20 23:37:31;;;;;;;1.50;1.10;;;8.80;98.20;;;;;;5007140;28;20566;-74
2023/04/20 23:39:58;;;;;;;1.50;1.23;;;8.80;98.20;;;;;;5001648;28;20473;-74
2023/04/20 23:42:25;;;;;;;1.50;1.17;;;8.80;98.20;;;;;;5067472;28;20630;-74
2023/04/20 23:44:51;;;;;;;1.47;1.20;;;8.80;98.20;;;;;;5003066;28;20841;-74
2023/04/20 23:47:18;;;;;;;1.43;1.10;;;8.70;98.20;;;;;;4997661;28;20484;-73
2023/04/20 23:49:46;;;;;;;1.50;1.20;;;8.70;98.20;;;;;;4999791;28;20693;-74
2023/04/20 23:52:13;;;;;;;1.50;1.20;;;8.70;98.20;;;;;;5008015;28;20487;-73
2023/04/20 23:54:39;;;;;;;1.50;1.10;;;8.70;98.20;;;;;;5002186;28;20472;-74
2023/04/20 23:57:07;;;;;;;1.50;1.20;;;8.60;98.20;;;;;;4987203;28;20492;-72
2023/04/20 23:59:34;;;;;;;1.50;1.10;;;8.60;98.20;;;;;;5003434;28;20484;-74
